Time;durP1;ratioP1;P1;durP2;ratioP2;P2;SDS_P1;SDS_P2;PMS_P1;PMS_P2;Temp;Humidity;BMP_temperature;BMP_pressure;BME280_temperature;BME280_humidity;BME280_pressure;Samples;Min_cycle;Max_cycle;Signal;HPM_P1;HPM_P2
2021/07/03 00:02:08;;;;;;;;;;;;;;;;;;4986137;28;19960;-80
2021/07/03 00:04:35;;;;;;;;;;;;;;;;;;4982452;28;20053;-80
2021/07/03 00:07:02;;;;;;;;;;;;;;;;;;4982757;28;19922;-80
2021/07/03 00:09:29;;;;;;;;;;;;;;;;;;4981161;28;19995;-80
2021/07/03 00:12:00;;;;;;;;;;;;;;;;;;4983037;28;19957;-80
2021/07/03 00:14:27;;;;;;;;;;;;;;;;;;4984922;28;19972;-80
2021/07/03 00:16:54;;;;;;;;;;;;;;;;;;4983049;28;20020;-80
2021/07/03 00:19:22;;;;;;;;;;;;;;;;;;4986049;28;19929;-80
2021/07/03 00:21:49;;;;;;;;;;;;;;;;;;4985400;28;20024;-78
2021/07/03 00:24:17;;;;;;;;;;;;;;;;;;4984067;28;19930;-79
2021/07/03 00:26:44;;;;;;;;;;;;;;;;;;4982264;28;20019;-79
2021/07/03 00:29:13;;;;;;;;;;;;;;;;;;4982778;28;20016;-79
2021/07/03 00:31:40;;;;;;;;;;;;;;;;;;4985750;28;19960;-78
2021/07/03 00:34:07;;;;;;;;;;;;;;;;;;4983423;28;20005;-79
2021/07/03 00:36:35;;;;;;;;;;;;;;;;;;4982020;28;20054;-79
2021/07/03 00:39:02;;;;;;;;;;;;;;;;;;4981402;28;20076;-79
2021/07/03 00:41:29;;;;;;;;;;;;;;;;;;4968253;28;19973;-78
2021/07/03 00:43:57;;;;;;;;;;;;;;;;;;4982029;28;20017;-79
2021/07/03 00:46:24;;;;;;;;;;;;;;;;;;4980357;28;20282;-79
2021/07/03 00:48:51;;;;;;;;;;;;;;;;;;4983347;28;19972;-79
2021/07/03 00:51:18;;;;;;;;;;;;;;;;;;4980950;28;19925;-79
2021/07/03 00:53:45;;;;;;;;;;;;;;;;;;4983275;28;20093;-79
2021/07/03 00:56:12;;;;;;;;;;;;;;;;;;4981928;28;20369;-79
2021/07/03 00:58:39;;;;;;;;;;;;;;;;;;4978847;28;20020;-79
2021/07/03 01:01:07;;;;;;;;;;;;;;;;;;4980711;28;20020;-79
2021/07/03 01:03:34;;;;;;;;;;;;;;;;;;4981007;28;19980;-79
2021/07/03 01:06:02;;;;;;;;;;;;;;;;;;4970870;28;20012;-79
2021/07/03 01:08:29;;;;;;;;;;;;;;;;;;4980870;28;20015;-79
2021/07/03 01:10:56;;;;;;;;;;;;;;;;;;4981758;28;20028;-79
2021/07/03 01:13:23;;;;;;;;;;;;;;;;;;4982019;28;20257;-79
2021/07/03 01:15:50;;;;;;;;;;;;;;;;;;4982011;28;19922;-79
2021/07/03 01:18:17;;;;;;;;;;;;;;;;;;4983534;28;19921;-79
2021/07/03 01:20:44;;;;;;;;;;;;;;;;;;4978803;28;19929;-79
2021/07/03 01:23:11;;;;;;;;;;;;;;;;;;4982479;28;19925;-79
2021/07/03 01:25:38;;;;;;;;;;;;;;;;;;4978070;28;20008;-78
2021/07/03 01:28:06;;;;;;;;;;;;;;;;;;4979528;28;20449;-79
2021/07/03 01:30:33;;;;;;;;;;;;;;;;;;4969694;28;19925;-79
2021/07/03 01:33:00;;;;;;;;;;;;;;;;;;4981196;28;19926;-79
2021/07/03 01:35:27;;;;;;;;;;;;;;;;;;4976506;28;20011;-78
2021/07/03 01:37:54;;;;;;;;;;;;;;;;;;4978701;28;20244;-79
2021/07/03 01:40:21;;;;;;;;;;;;;;;;;;4980532;28;20008;-79
2021/07/03 01:42:48;;;;;;;;;;;;;;;;;;4981431;28;19931;-78
2021/07/03 01:45:15;;;;;;;;;;;;;;;;;;4982770;28;20707;-78
2021/07/03 01:47:43;;;;;;;;;;;;;;;;;;4983511;28;19968;-79
2021/07/03 01:50:10;;;;;;;;;;;;;;;;;;4984233;28;19972;-78
2021/07/03 01:52:38;;;;;;;;;;;;;;;;;;4983923;28;20040;-78
2021/07/03 01:55:06;;;;;;;;;;;;;;;;;;4986398;28;19932;-79
2021/07/03 01:57:33;;;;;;;;;;;;;;;;;;4971560;28;20142;-78
2021/07/03 02:00:01;;;;;;;;;;;;;;;;;;4985321;28;20776;-78
2021/07/03 02:02:28;;;;;;;;;;;;;;;;;;4985950;28;20012;-78
2021/07/03 02:04:55;;;;;;;;;;;;;;;;;;4977205;28;20024;-78
2021/07/03 02:07:22;;;;;;;;;;;;;;;;;;4983670;28;20007;-78
2021/07/03 02:09:49;;;;;;;;;;;;;;;;;;4984410;28;19936;-78
2021/07/03 02:12:17;;;;;;;;;;;;;;;;;;4973920;28;19957;-78
2021/07/03 02:14:44;;;;;;;;;;;;;;;;;;4985005;28;19957;-78
2021/07/03 02:17:11;;;;;;;;;;;;;;;;;;4984399;28;20032;-78
2021/07/03 02:19:38;;;;;;;;;;;;;;;;;;4984198;28;19923;-78
2021/07/03 02:22:05;;;;;;;;;;;;;;;;;;4985851;28;19926;-79
2021/07/03 02:24:37;;;;;;;;;;;;;;;;;;4987165;28;22005;-78
2021/07/03 02:27:04;;;;;;;;;;;;;;;;;;4971618;28;20028;-78
2021/07/03 02:29:31;;;;;;;;;;;;;;;;;;4981083;28;19926;-79
2021/07/03 02:31:58;;;;;;;;;;;;;;;;;;4982658;28;20021;-78
2021/07/03 02:34:25;;;;;;;;;;;;;;;;;;4986716;28;19956;-78
2021/07/03 02:36:52;;;;;;;;;;;;;;;;;;4985707;28;19932;-78
2021/07/03 02:39:20;;;;;;;;;;;;;;;;;;4985120;28;20017;-78
2021/07/03 02:41:47;;;;;;;;;;;;;;;;;;4984421;28;20012;-78
2021/07/03 02:44:14;;;;;;;;;;;;;;;;;;4986190;28;19926;-78
2021/07/03 02:46:41;;;;;;;;;;;;;;;;;;4985827;28;20029;-78
2021/07/03 02:49:08;;;;;;;;;;;;;;;;;;4971686;28;19988;-78
2021/07/03 02:51:35;;;;;;;;;;;;;;;;;;4985271;28;19936;-78
2021/07/03 02:54:02;;;;;;;;;;;;;;;;;;4985599;28;20016;-78
2021/07/03 02:56:29;;;;;;;;;;;;;;;;;;4985438;28;20024;-78
2021/07/03 02:58:57;;;;;;;;;;;;;;;;;;4987292;28;20028;-79
2021/07/03 03:01:24;;;;;;;;;;;;;;;;;;4987032;28;19949;-79
2021/07/03 03:03:52;;;;;;;;;;;;;;;;;;4986547;28;19921;-78
2021/07/03 03:06:19;;;;;;;;;;;;;;;;;;4984815;28;19988;-78
2021/07/03 03:08:46;;;;;;;;;;;;;;;;;;4986860;28;20012;-78
2021/07/03 03:11:13;;;;;;;;;;;;;;;;;;4983914;28;20030;-78
2021/07/03 03:13:41;;;;;;;;;;;;;;;;;;4984994;28;19961;-78
2021/07/03 03:16:09;;;;;;;;;;;;;;;;;;4983158;28;19980;-78
2021/07/03 03:18:36;;;;;;;;;;;;;;;;;;4984651;28;20412;-78
2021/07/03 03:21:03;;;;;;;;;;;;;;;;;;4985587;28;19958;-78
2021/07/03 03:23:30;;;;;;;;;;;;;;;;;;4984111;28;19963;-78
2021/07/03 03:25:57;;;;;;;;;;;;;;;;;;4982003;28;19922;-78
2021/07/03 03:28:24;;;;;;;;;;;;;;;;;;4980847;28;19996;-78
2021/07/03 03:30:52;;;;;;;;;;;;;;;;;;4979687;28;20080;-78
2021/07/03 03:33:19;;;;;;;;;;;;;;;;;;4979746;28;20033;-78
2021/07/03 03:35:58;;;;;;;;;;;;;;;;;;4979035;28;20469;-78
2021/07/03 03:38:25;;;;;;;;;;;;;;;;;;4981542;28;19968;-78
2021/07/03 03:40:53;;;;;;;;;;;;;;;;;;4979733;28;20028;-79
2021/07/03 03:43:20;;;;;;;;;;;;;;;;;;4983648;28;20055;-79
2021/07/03 03:45:47;;;;;;;;;;;;;;;;;;4983635;28;20036;-78
2021/07/03 03:48:15;;;;;;;;;;;;;;;;;;4981752;28;19925;-78
2021/07/03 03:50:42;;;;;;;;;;;;;;;;;;4985000;28;19922;-78
2021/07/03 03:53:09;;;;;;;;;;;;;;;;;;4983887;28;20663;-78
2021/07/03 03:55:36;;;;;;;;;;;;;;;;;;4982342;28;20064;-78
2021/07/03 03:58:03;;;;;;;;;;;;;;;;;;4984584;28;19926;-78
2021/07/03 04:00:31;;;;;;;;;;;;;;;;;;4984980;28;20062;-79
2021/07/03 04:02:58;;;;;;;;;;;;;;;;;;4983782;28;20020;-79
2021/07/03 04:05:25;;;;;;;;;;;;;;;;;;4983343;28;19973;-79
2021/07/03 04:07:52;;;;;;;;;;;;;;;;;;4983942;28;20652;-78
2021/07/03 04:10:19;;;;;;;;;;;;;;;;;;4984420;28;19996;-78
2021/07/03 04:12:46;;;;;;;;;;;;;;;;;;4983106;28;19943;-79
2021/07/03 04:15:13;;;;;;;;;;;;;;;;;;4985110;28;19930;-78
2021/07/03 04:17:43;;;;;;;;;;;;;;;;;;4984561;28;20024;-79
2021/07/03 04:20:10;;;;;;;;;;;;;;;;;;4983680;28;20008;-79
2021/07/03 04:22:37;;;;;;;;;;;;;;;;;;4985131;28;20374;-79
2021/07/03 04:25:04;;;;;;;;;;;;;;;;;;4982992;28;19922;-79
2021/07/03 04:27:39;;;;;;;;;;;;;;;;;;5121121;27;20303;-80
2021/07/03 04:30:06;;;;;;;;;;;;;;;;;;5119996;27;19930;-80
2021/07/03 04:32:33;;;;;;;;;;;;;;;;;;5115319;27;20313;-80
2021/07/03 04:35:00;;;;;;;;;;;;;;;;;;5115477;27;21233;-80
2021/07/03 04:37:28;;;;;;;;;;;;;;;;;;5121951;27;20010;-80
2021/07/03 04:39:55;;;;;;;;;;;;;;;;;;5117879;27;20010;-77
2021/07/03 04:42:23;;;;;;;;;;;;;;;;;;5117041;27;20010;-77
2021/07/03 04:44:50;;;;;;;;;;;;;;;;;;5117705;27;19931;-77
2021/07/03 04:47:18;;;;;;;;;;;;;;;;;;5112874;27;19928;-78
2021/07/03 04:49:45;;;;;;;;;;;;;;;;;;5119346;27;20022;-78
2021/07/03 04:52:12;;;;;;;;;;;;;;;;;;5117935;27;20011;-78
2021/07/03 04:54:39;;;;;;;;;;;;;;;;;;5119825;27;21048;-79
2021/07/03 04:57:07;;;;;;;;;;;;;;;;;;5118414;27;19963;-78
2021/07/03 04:59:42;;;;;;;;;;;;;;;;;;5115933;27;20338;-78
2021/07/03 05:02:09;;;;;;;;;;;;;;;;;;5116326;27;19959;-78
2021/07/03 05:04:36;;;;;;;;;;;;;;;;;;5119822;27;19999;-79
2021/07/03 05:07:03;;;;;;;;;;;;;;;;;;5116754;27;19923;-80
2021/07/03 05:09:30;;;;;;;;;;;;;;;;;;5119758;27;19966;-78
2021/07/03 05:11:57;;;;;;;;;;;;;;;;;;5116937;27;20043;-79
2021/07/03 05:14:24;;;;;;;;;;;;;;;;;;5118103;27;20133;-79
2021/07/03 05:16:52;;;;;;;;;;;;;;;;;;5120598;27;20371;-78
2021/07/03 05:19:19;;;;;;;;;;;;;;;;;;5116299;27;19931;-79
2021/07/03 05:21:46;;;;;;;;;;;;;;;;;;5118329;27;20395;-79
2021/07/03 05:24:13;;;;;;;;;;;;;;;;;;5117414;27;20016;-79
2021/07/03 05:26:40;;;;;;;;;;;;;;;;;;5119127;27;20014;-78
2021/07/03 05:29:07;;;;;;;;;;;;;;;;;;5118868;27;20006;-79
2021/07/03 05:31:34;;;;;;;;;;;;;;;;;;5120010;27;20028;-79
2021/07/03 05:34:02;;;;;;;;;;;;;;;;;;5117890;27;19938;-79
2021/07/03 05:36:29;;;;;;;;;;;;;;;;;;5116833;27;20400;-79
2021/07/03 05:38:57;;;;;;;;;;;;;;;;;;5104371;27;20014;-79
2021/07/03 05:41:26;;;;;;;;;;;;;;;;;;5104800;27;20018;-79
2021/07/03 05:43:53;;;;;;;;;;;;;;;;;;5105611;28;19951;-79
2021/07/03 05:46:21;;;;;;;;;;;;;;;;;;5105290;27;20444;-79
2021/07/03 05:48:48;;;;;;;;;;;;;;;;;;5105413;27;19924;-79
2021/07/03 05:51:16;;;;;;;;;;;;;;;;;;5104714;28;20026;-79
2021/07/03 05:53:43;;;;;;;;;;;;;;;;;;5102821;28;19971;-79
2021/07/03 05:56:11;;;;;;;;;;;;;;;;;;5104389;27;20023;-79
2021/07/03 05:58:39;;;;;;;;;;;;;;;;;;5106332;27;20432;-79
2021/07/03 06:01:13;;;;;;;;;;;;;;;;;;5103923;28;20014;-79
2021/07/03 06:03:41;;;;;;;;;;;;;;;;;;5107824;27;19924;-80
2021/07/03 06:06:08;;;;;;;;;;;;;;;;;;5104207;27;19967;-79
2021/07/03 06:08:35;;;;;;;;;;;;;;;;;;5105181;27;19928;-79
2021/07/03 06:11:02;;;;;;;;;;;;;;;;;;5103128;27;19970;-79
2021/07/03 06:13:29;;;;;;;;;;;;;;;;;;5101520;28;19931;-78
2021/07/03 06:15:56;;;;;;;;;;;;;;;;;;5098317;28;20278;-77
2021/07/03 06:18:26;;;;;;;;;;;;;;;;;;5098704;27;19924;-77
2021/07/03 06:20:53;;;;;;;;;;;;;;;;;;5101534;28;20007;-78
2021/07/03 06:23:20;;;;;;;;;;;;;;;;;;5101800;27;19950;-77
2021/07/03 06:25:47;;;;;;;;;;;;;;;;;;5104598;27;19966;-79
2021/07/03 06:28:14;;;;;;;;;;;;;;;;;;5101469;27;20656;-77
2021/07/03 06:30:42;;;;;;;;;;;;;;;;;;5100487;28;20022;-76
2021/07/03 06:33:09;;;;;;;;;;;;;;;;;;5099828;27;20587;-78
2021/07/03 06:35:36;;;;;;;;;;;;;;;;;;5100115;28;19927;-77
2021/07/03 06:38:04;;;;;;;;;;;;;;;;;;5099298;27;19937;-78
2021/07/03 06:40:31;;;;;;;;;;;;;;;;;;5098442;28;20380;-78
2021/07/03 06:42:58;;;;;;;;;;;;;;;;;;5098097;28;19932;-79
2021/07/03 06:45:25;;;;;;;;;;;;;;;;;;5099525;28;20023;-77
2021/07/03 06:47:52;;;;;;;;;;;;;;;;;;5102524;27;20651;-75
2021/07/03 06:50:19;;;;;;;;;;;;;;;;;;5100750;27;19927;-76
2021/07/03 06:52:47;;;;;;;;;;;;;;;;;;5100987;27;20018;-76
2021/07/03 06:55:14;;;;;;;;;;;;;;;;;;5099949;27;21288;-75
2021/07/03 06:57:41;;;;;;;;;;;;;;;;;;5099796;27;19955;-77
2021/07/03 07:00:08;;;;;;;;;;;;;;;;;;5099365;28;20002;-76
2021/07/03 07:02:35;;;;;;;;;;;;;;;;;;5098979;28;20213;-77
2021/07/03 07:05:03;;;;;;;;;;;;;;;;;;5098442;28;19955;-76
2021/07/03 07:07:30;;;;;;;;;;;;;;;;;;5099096;28;20732;-74
2021/07/03 07:09:57;;;;;;;;;;;;;;;;;;5099412;28;20295;-76
2021/07/03 07:12:24;;;;;;;;;;;;;;;;;;5098935;27;20018;-75
2021/07/03 07:14:51;;;;;;;;;;;;;;;;;;5100314;28;20082;-78
2021/07/03 07:17:18;;;;;;;;;;;;;;;;;;5100307;27;19959;-76
2021/07/03 07:19:46;;;;;;;;;;;;;;;;;;5096976;28;19928;-76
2021/07/03 07:22:13;;;;;;;;;;;;;;;;;;5092134;27;19931;-76
2021/07/03 07:24:41;;;;;;;;;;;;;;;;;;5099846;27;20586;-76
2021/07/03 07:27:08;;;;;;;;;;;;;;;;;;5098602;28;21470;-76
2021/07/03 07:29:35;;;;;;;;;;;;;;;;;;5098510;28;20014;-76
2021/07/03 07:32:02;;;;;;;;;;;;;;;;;;5098474;28;19935;-76
2021/07/03 07:34:29;;;;;;;;;;;;;;;;;;5096667;28;19939;-75
2021/07/03 07:36:57;;;;;;;;;;;;;;;;;;5098830;28;20374;-76
2021/07/03 07:39:25;;;;;;;;;;;;;;;;;;5098485;27;19932;-77
2021/07/03 07:41:52;;;;;;;;;;;;;;;;;;5099208;28;20476;-77
2021/07/03 07:44:19;;;;;;;;;;;;;;;;;;5099539;28;19931;-76
2021/07/03 07:46:46;;;;;;;;;;;;;;;;;;5098475;27;20012;-76
2021/07/03 07:49:13;;;;;;;;;;;;;;;;;;5096847;28;19958;-77
2021/07/03 07:51:40;;;;;;;;;;;;;;;;;;5098371;28;20014;-77
2021/07/03 07:54:07;;;;;;;;;;;;;;;;;;5098060;28;19923;-77
2021/07/03 07:56:35;;;;;;;;;;;;;;;;;;5099094;28;19938;-77
2021/07/03 07:59:02;;;;;;;;;;;;;;;;;;5099660;28;21234;-77
2021/07/03 08:01:30;;;;;;;;;;;;;;;;;;5099654;28;20455;-77
2021/07/03 08:03:59;;;;;;;;;;;;;;;;;;5097045;28;20355;-77
2021/07/03 08:06:26;;;;;;;;;;;;;;;;;;5099250;28;20015;-77
2021/07/03 08:08:53;;;;;;;;;;;;;;;;;;5099167;27;20054;-78
2021/07/03 08:11:22;;;;;;;;;;;;;;;;;;5098003;27;19988;-78
2021/07/03 08:13:49;;;;;;;;;;;;;;;;;;5101445;27;20008;-77
2021/07/03 08:16:16;;;;;;;;;;;;;;;;;;5096111;27;20024;-78
2021/07/03 08:18:43;;;;;;;;;;;;;;;;;;5099462;28;19932;-78
2021/07/03 08:21:11;;;;;;;;;;;;;;;;;;5100765;28;19932;-80
2021/07/03 08:23:38;;;;;;;;;;;;;;;;;;5102738;28;20031;-80
2021/07/03 08:26:05;;;;;;;;;;;;;;;;;;5100217;28;19928;-78
2021/07/03 08:28:32;;;;;;;;;;;;;;;;;;5096819;28;20022;-77
2021/07/03 08:30:59;;;;;;;;;;;;;;;;;;5095571;28;19951;-78
2021/07/03 08:33:26;;;;;;;;;;;;;;;;;;5097101;28;21793;-77
2021/07/03 08:35:53;;;;;;;;;;;;;;;;;;5097128;28;19998;-78
2021/07/03 08:38:21;;;;;;;;;;;;;;;;;;5096990;28;20400;-77
2021/07/03 08:40:48;;;;;;;;;;;;;;;;;;5099240;28;19996;-78
2021/07/03 08:43:15;;;;;;;;;;;;;;;;;;5098234;28;19934;-77
2021/07/03 08:45:43;;;;;;;;;;;;;;;;;;5096068;28;19978;-77
2021/07/03 08:48:12;;;;;;;;;;;;;;;;;;5101260;28;19924;-78
2021/07/03 08:50:41;;;;;;;;;;;;;;;;;;5097122;28;19981;-78
2021/07/03 08:53:11;;;;;;;;;;;;;;;;;;5097640;28;19931;-78
2021/07/03 08:55:38;;;;;;;;;;;;;;;;;;5095192;28;20303;-77
2021/07/03 08:58:05;;;;;;;;;;;;;;;;;;5098618;28;19934;-77
2021/07/03 09:00:33;;;;;;;;;;;;;;;;;;5098609;28;19931;-78
2021/07/03 09:03:00;;;;;;;;;;;;;;;;;;5100158;28;19934;-78
2021/07/03 09:05:29;;;;;;;;;;;;;;;;;;5098613;28;20018;-78
2021/07/03 09:07:57;;;;;;;;;;;;;;;;;;5102348;28;19959;-78
2021/07/03 09:10:25;;;;;;;;;;;;;;;;;;5097935;28;20436;-78
2021/07/03 09:12:53;;;;;;;;;;;;;;;;;;5101399;28;19976;-78
2021/07/03 09:15:20;;;;;;;;;;;;;;;;;;5104452;27;19924;-78
2021/07/03 09:17:48;;;;;;;;;;;;;;;;;;5105184;27;19930;-78
2021/07/03 09:20:18;;;;;;;;;;;;;;;;;;5103885;27;19928;-77
2021/07/03 09:22:46;;;;;;;;;;;;;;;;;;5103252;28;19938;-78
2021/07/03 09:25:15;;;;;;;;;;;;;;;;;;5100580;27;19934;-78
2021/07/03 09:27:43;;;;;;;;;;;;;;;;;;5101512;28;19931;-78
2021/07/03 09:30:10;;;;;;;;;;;;;;;;;;5098992;27;19952;-78
2021/07/03 09:32:37;;;;;;;;;;;;;;;;;;5103127;27;19932;-79
2021/07/03 09:35:05;;;;;;;;;;;;;;;;;;5104632;28;20049;-79
2021/07/03 09:37:33;;;;;;;;;;;;;;;;;;5106994;27;20451;-81
2021/07/03 09:40:00;;;;;;;;;;;;;;;;;;5106191;27;19955;-80
2021/07/03 09:42:27;;;;;;;;;;;;;;;;;;5103257;27;20667;-80
2021/07/03 09:44:54;;;;;;;;;;;;;;;;;;5105496;28;20050;-80
2021/07/03 09:47:21;;;;;;;;;;;;;;;;;;5103665;27;19966;-80
2021/07/03 09:49:49;;;;;;;;;;;;;;;;;;5104031;27;20610;-81
2021/07/03 09:52:16;;;;;;;;;;;;;;;;;;5104790;27;20018;-81
2021/07/03 09:54:43;;;;;;;;;;;;;;;;;;5105463;27;19963;-81
2021/07/03 09:57:10;;;;;;;;;;;;;;;;;;5107667;27;19966;-81
2021/07/03 09:59:37;;;;;;;;;;;;;;;;;;5105341;27;20284;-81
2021/07/03 10:02:04;;;;;;;;;;;;;;;;;;5105088;27;20706;-81
2021/07/03 10:04:32;;;;;;;;;;;;;;;;;;5107011;27;20372;-81
2021/07/03 10:06:59;;;;;;;;;;;;;;;;;;5105887;27;19981;-79
2021/07/03 10:09:27;;;;;;;;;;;;;;;;;;5103322;27;19923;-82
2021/07/03 10:11:54;;;;;;;;;;;;;;;;;;5105254;27;19927;-82
2021/07/03 10:14:22;;;;;;;;;;;;;;;;;;5105986;27;19967;-82
2021/07/03 10:16:50;;;;;;;;;;;;;;;;;;5106313;27;20380;-83
2021/07/03 10:19:20;;;;;;;;;;;;;;;;;;5100301;27;19931;-83
2021/07/03 10:21:47;;;;;;;;;;;;;;;;;;5106179;27;19924;-81
2021/07/03 10:24:15;;;;;;;;;;;;;;;;;;5105490;27;20051;-80
2021/07/03 10:26:43;;;;;;;;;;;;;;;;;;5101359;27;19966;-80
2021/07/03 10:29:10;;;;;;;;;;;;;;;;;;5104823;27;20432;-80
2021/07/03 10:31:37;;;;;;;;;;;;;;;;;;5102422;27;19924;-80
2021/07/03 10:34:04;;;;;;;;;;;;;;;;;;5107139;27;20010;-80
2021/07/03 10:36:33;;;;;;;;;;;;;;;;;;5104758;27;20078;-80
2021/07/03 10:39:07;;;;;;;;;;;;;;;;;;5103292;27;19955;-79
2021/07/03 10:41:34;;;;;;;;;;;;;;;;;;5105094;27;20471;-81
2021/07/03 10:44:01;;;;;;;;;;;;;;;;;;5104247;28;19967;-80
2021/07/03 10:46:28;;;;;;;;;;;;;;;;;;5101061;27;20454;-79
2021/07/03 10:48:56;;;;;;;;;;;;;;;;;;5101444;27;20387;-81
2021/07/03 10:51:23;;;;;;;;;;;;;;;;;;5103698;28;20295;-81
2021/07/03 10:53:56;;;;;;;;;;;;;;;;;;5104528;27;20058;-82
2021/07/03 10:56:23;;;;;;;;;;;;;;;;;;5103546;28;19959;-80
2021/07/03 10:58:51;;;;;;;;;;;;;;;;;;5106596;27;19941;-80
2021/07/03 11:01:22;;;;;;;;;;;;;;;;;;5106069;27;19924;-81
2021/07/03 11:03:53;;;;;;;;;;;;;;;;;;5101864;28;19936;-79
2021/07/03 11:06:22;;;;;;;;;;;;;;;;;;5100120;27;20012;-79
2021/07/03 11:08:54;;;;;;;;;;;;;;;;;;5097076;28;19950;-78
2021/07/03 11:11:21;;;;;;;;;;;;;;;;;;5099622;27;20076;-77
2021/07/03 11:13:48;;;;;;;;;;;;;;;;;;5098609;28;20404;-77
2021/07/03 11:16:15;;;;;;;;;;;;;;;;;;5098648;28;19928;-77
2021/07/03 11:18:43;;;;;;;;;;;;;;;;;;5098055;27;19927;-77
2021/07/03 11:21:13;;;;;;;;;;;;;;;;;;5097482;27;20402;-78
2021/07/03 11:23:40;;;;;;;;;;;;;;;;;;5099394;27;20027;-78
2021/07/03 11:26:08;;;;;;;;;;;;;;;;;;5098562;27;20046;-77
2021/07/03 11:28:36;;;;;;;;;;;;;;;;;;5098045;28;19931;-77
2021/07/03 11:31:03;;;;;;;;;;;;;;;;;;5099598;28;20437;-77
2021/07/03 11:33:31;;;;;;;;;;;;;;;;;;5099257;27;19963;-77
2021/07/03 11:35:59;;;;;;;;;;;;;;;;;;5095621;28;20046;-77
2021/07/03 11:38:26;;;;;;;;;;;;;;;;;;5097192;27;20666;-76
2021/07/03 11:40:53;;;;;;;;;;;;;;;;;;5096488;28;19954;-76
2021/07/03 11:43:20;;;;;;;;;;;;;;;;;;5098993;28;22745;-77
2021/07/03 11:45:47;;;;;;;;;;;;;;;;;;5098881;28;20027;-76
2021/07/03 11:48:14;;;;;;;;;;;;;;;;;;5094847;28;20099;-76
2021/07/03 11:50:42;;;;;;;;;;;;;;;;;;5104928;27;19987;-77
2021/07/03 11:53:09;;;;;;;;;;;;;;;;;;5111197;27;19927;-76
2021/07/03 11:55:36;;;;;;;;;;;;;;;;;;5105604;28;19967;-76
2021/07/03 11:58:04;;;;;;;;;;;;;;;;;;5106260;28;19971;-77
2021/07/03 12:00:35;;;;;;;;;;;;;;;;;;5107729;27;19935;-77
2021/07/03 12:03:02;;;;;;;;;;;;;;;;;;5111657;27;19955;-78
2021/07/03 12:05:29;;;;;;;;;;;;;;;;;;5109652;27;19986;-77
2021/07/03 12:07:57;;;;;;;;;;;;;;;;;;5117302;27;19927;-78
2021/07/03 12:10:24;;;;;;;;;;;;;;;;;;5109614;27;20018;-77
2021/07/03 12:12:51;;;;;;;;;;;;;;;;;;5107093;28;19963;-77
2021/07/03 12:15:19;;;;;;;;;;;;;;;;;;5106283;27;20015;-76
2021/07/03 12:17:46;;;;;;;;;;;;;;;;;;5121023;27;19930;-77
2021/07/03 12:20:14;;;;;;;;;;;;;;;;;;5108379;28;19962;-77
2021/07/03 12:22:41;;;;;;;;;;;;;;;;;;5108214;28;19931;-76
2021/07/03 12:25:08;;;;;;;;;;;;;;;;;;5105893;28;19935;-78
2021/07/03 12:27:35;;;;;;;;;;;;;;;;;;5100751;28;19928;-77
2021/07/03 12:30:02;;;;;;;;;;;;;;;;;;5107038;28;19959;-76
2021/07/03 12:32:30;;;;;;;;;;;;;;;;;;5106413;28;20033;-80
2021/07/03 12:34:57;;;;;;;;;;;;;;;;;;5106856;28;19924;-80
2021/07/03 12:37:24;;;;;;;;;;;;;;;;;;5108638;28;19999;-81
2021/07/03 12:39:52;;;;;;;;;;;;;;;;;;5109967;28;20014;-81
2021/07/03 12:42:20;;;;;;;;;;;;;;;;;;5108487;28;20018;-82
2021/07/03 12:44:47;;;;;;;;;;;;;;;;;;5110746;28;19923;-80
2021/07/03 12:47:14;;;;;;;;;;;;;;;;;;5108961;27;19971;-77
2021/07/03 12:49:42;;;;;;;;;;;;;;;;;;5112363;28;19938;-79
2021/07/03 12:52:10;;;;;;;;;;;;;;;;;;5111427;28;20058;-77
2021/07/03 12:54:37;;;;;;;;;;;;;;;;;;5112007;28;19978;-78
2021/07/03 12:57:04;;;;;;;;;;;;;;;;;;5111519;28;19978;-77
2021/07/03 12:59:31;;;;;;;;;;;;;;;;;;5110833;28;19934;-77
2021/07/03 13:01:58;;;;;;;;;;;;;;;;;;5110162;28;19934;-77
2021/07/03 13:04:25;;;;;;;;;;;;;;;;;;5110688;28;19927;-78
2021/07/03 13:06:53;;;;;;;;;;;;;;;;;;5111100;28;19966;-77
2021/07/03 13:09:20;;;;;;;;;;;;;;;;;;5109295;28;20666;-77
2021/07/03 13:11:50;;;;;;;;;;;;;;;;;;5110907;28;20571;-78
2021/07/03 13:14:18;;;;;;;;;;;;;;;;;;5109390;28;19985;-78
2021/07/03 13:16:46;;;;;;;;;;;;;;;;;;5117492;27;20769;-78
2021/07/03 13:19:14;;;;;;;;;;;;;;;;;;5113206;27;20022;-78
2021/07/03 13:21:41;;;;;;;;;;;;;;;;;;5111481;28;20479;-77
2021/07/03 13:24:08;;;;;;;;;;;;;;;;;;5111641;28;20324;-78
2021/07/03 13:26:36;;;;;;;;;;;;;;;;;;5112637;28;19947;-80
2021/07/03 13:29:11;;;;;;;;;;;;;;;;;;5131159;27;19971;-80
2021/07/03 13:31:39;;;;;;;;;;;;;;;;;;5133849;27;19923;-80
2021/07/03 13:34:07;;;;;;;;;;;;;;;;;;5133528;27;19931;-80
2021/07/03 13:36:37;;;;;;;;;;;;;;;;;;5132357;27;19928;-81
2021/07/03 13:39:04;;;;;;;;;;;;;;;;;;5126371;27;19931;-80
2021/07/03 13:41:32;;;;;;;;;;;;;;;;;;5111598;28;19924;-79
2021/07/03 13:43:59;;;;;;;;;;;;;;;;;;5111732;28;20063;-80
2021/07/03 13:46:26;;;;;;;;;;;;;;;;;;5119876;27;20396;-80
2021/07/03 13:48:53;;;;;;;;;;;;;;;;;;5129848;27;19931;-80
2021/07/03 13:51:21;;;;;;;;;;;;;;;;;;5129338;27;19978;-80
2021/07/03 13:53:48;;;;;;;;;;;;;;;;;;5116869;27;19930;-80
2021/07/03 13:56:15;;;;;;;;;;;;;;;;;;5111789;28;19970;-80
2021/07/03 13:58:42;;;;;;;;;;;;;;;;;;5112741;28;19959;-81
2021/07/03 14:01:12;;;;;;;;;;;;;;;;;;5112333;28;19928;-81
2021/07/03 14:03:42;;;;;;;;;;;;;;;;;;5112441;28;19966;-81
2021/07/03 14:06:09;;;;;;;;;;;;;;;;;;5113760;28;19931;-81
2021/07/03 14:08:40;;;;;;;;;;;;;;;;;;5114195;28;20014;-81
2021/07/03 14:11:10;;;;;;;;;;;;;;;;;;5112731;28;19951;-81
2021/07/03 14:13:40;;;;;;;;;;;;;;;;;;5112591;28;19923;-81
2021/07/03 14:16:10;;;;;;;;;;;;;;;;;;5120402;27;20531;-81
2021/07/03 14:18:38;;;;;;;;;;;;;;;;;;5123647;27;19923;-81
2021/07/03 14:21:05;;;;;;;;;;;;;;;;;;5111599;28;19982;-81
2021/07/03 14:23:32;;;;;;;;;;;;;;;;;;5110674;28;19955;-81
2021/07/03 14:25:59;;;;;;;;;;;;;;;;;;5112552;28;19934;-82
2021/07/03 14:28:26;;;;;;;;;;;;;;;;;;5112487;28;19970;-82
2021/07/03 14:30:54;;;;;;;;;;;;;;;;;;5112751;28;19934;-81
2021/07/03 14:33:21;;;;;;;;;;;;;;;;;;5111884;28;19974;-81
2021/07/03 14:35:48;;;;;;;;;;;;;;;;;;5112220;28;20064;-81
2021/07/03 14:38:15;;;;;;;;;;;;;;;;;;5113294;28;19998;-81
2021/07/03 14:40:43;;;;;;;;;;;;;;;;;;5112543;28;19927;-80
2021/07/03 14:43:10;;;;;;;;;;;;;;;;;;5112622;28;19927;-81
2021/07/03 14:45:39;;;;;;;;;;;;;;;;;;5113634;28;19923;-81
2021/07/03 14:48:06;;;;;;;;;;;;;;;;;;5113018;28;20364;-81
2021/07/03 14:50:34;;;;;;;;;;;;;;;;;;5114354;28;19927;-81
2021/07/03 14:53:02;;;;;;;;;;;;;;;;;;5113567;28;19977;-81
2021/07/03 14:55:30;;;;;;;;;;;;;;;;;;5113673;27;19927;-81
2021/07/03 14:57:58;;;;;;;;;;;;;;;;;;5112106;28;19967;-81
2021/07/03 15:00:26;;;;;;;;;;;;;;;;;;5111194;28;19974;-81
2021/07/03 15:02:56;;;;;;;;;;;;;;;;;;5109208;28;19931;-81
2021/07/03 15:05:23;;;;;;;;;;;;;;;;;;5109313;28;19928;-81
2021/07/03 15:07:50;;;;;;;;;;;;;;;;;;5110636;28;20394;-81
2021/07/03 15:10:17;;;;;;;;;;;;;;;;;;5109624;28;20007;-81
2021/07/03 15:12:44;;;;;;;;;;;;;;;;;;5108841;28;19934;-81
2021/07/03 15:15:12;;;;;;;;;;;;;;;;;;5116842;27;19923;-80
2021/07/03 15:17:39;;;;;;;;;;;;;;;;;;5122241;27;20747;-81
2021/07/03 15:20:06;;;;;;;;;;;;;;;;;;5131696;27;19923;-80
2021/07/03 15:22:34;;;;;;;;;;;;;;;;;;5133015;27;19996;-81
2021/07/03 15:25:06;;;;;;;;;;;;;;;;;;5119258;27;20338;-81
2021/07/03 15:27:34;;;;;;;;;;;;;;;;;;5110929;28;20455;-81
2021/07/03 15:30:01;;;;;;;;;;;;;;;;;;5110011;28;19927;-80
2021/07/03 15:32:28;;;;;;;;;;;;;;;;;;5112222;27;19938;-80
2021/07/03 15:34:55;;;;;;;;;;;;;;;;;;5109304;28;19978;-80
2021/07/03 15:37:22;;;;;;;;;;;;;;;;;;5109206;28;20373;-79
2021/07/03 15:39:49;;;;;;;;;;;;;;;;;;5109614;28;20387;-81
2021/07/03 15:42:16;;;;;;;;;;;;;;;;;;5109931;28;20462;-80
2021/07/03 15:44:43;;;;;;;;;;;;;;;;;;5112443;27;19967;-80
2021/07/03 15:47:10;;;;;;;;;;;;;;;;;;5122466;27;20035;-80
2021/07/03 15:49:38;;;;;;;;;;;;;;;;;;5131795;27;19930;-80
2021/07/03 15:52:05;;;;;;;;;;;;;;;;;;5131707;27;19927;-80
2021/07/03 15:54:32;;;;;;;;;;;;;;;;;;5124954;27;19923;-80
2021/07/03 15:56:59;;;;;;;;;;;;;;;;;;5111093;28;20030;-80
2021/07/03 15:59:26;;;;;;;;;;;;;;;;;;5111009;28;19982;-80
2021/07/03 16:01:54;;;;;;;;;;;;;;;;;;5110810;28;20023;-80
2021/07/03 16:04:21;;;;;;;;;;;;;;;;;;5111022;28;19993;-80
2021/07/03 16:06:48;;;;;;;;;;;;;;;;;;5109086;28;20011;-80
2021/07/03 16:09:15;;;;;;;;;;;;;;;;;;5108577;28;20026;-80
2021/07/03 16:11:42;;;;;;;;;;;;;;;;;;5108985;28;19954;-80
2021/07/03 16:14:09;;;;;;;;;;;;;;;;;;5109285;28;20006;-80
2021/07/03 16:16:38;;;;;;;;;;;;;;;;;;5108282;28;20026;-79
2021/07/03 16:19:05;;;;;;;;;;;;;;;;;;5108987;28;19928;-80
2021/07/03 16:21:32;;;;;;;;;;;;;;;;;;5108981;28;19975;-80
2021/07/03 16:23:59;;;;;;;;;;;;;;;;;;5108899;28;19930;-80
2021/07/03 16:26:26;;;;;;;;;;;;;;;;;;5110071;28;19957;-80
2021/07/03 16:28:53;;;;;;;;;;;;;;;;;;5108492;28;20717;-80
2021/07/03 16:31:20;;;;;;;;;;;;;;;;;;5107969;28;19975;-80
2021/07/03 16:33:48;;;;;;;;;;;;;;;;;;5108624;28;19924;-80
2021/07/03 16:36:15;;;;;;;;;;;;;;;;;;5108976;28;19959;-80
2021/07/03 16:38:42;;;;;;;;;;;;;;;;;;5108829;28;19930;-80
2021/07/03 16:41:15;;;;;;;;;;;;;;;;;;5108602;28;20439;-80
2021/07/03 16:43:43;;;;;;;;;;;;;;;;;;5107234;28;20023;-80
2021/07/03 16:46:10;;;;;;;;;;;;;;;;;;5118198;28;20038;-80
2021/07/03 16:48:37;;;;;;;;;;;;;;;;;;5128947;27;20287;-80